Time;durP1;ratioP1;P1;durP2;ratioP2;P2;SDS_P1;SDS_P2;PMS_P1;PMS_P2;Temp;Humidity;BMP_temperature;BMP_pressure;BME280_temperature;BME280_humidity;BME280_pressure;Samples;Min_cycle;Max_cycle;Signal;HPM_P1;HPM_P2
2023/05/29 00:01:40;;;;;;;4.23;3.20;;;21.20;40.50;;;;;;5003967;28;20474;-83
2023/05/29 00:04:07;;;;;;;4.40;3.53;;;21.10;40.60;;;;;;5029544;28;20461;-82
2023/05/29 00:06:35;;;;;;;4.17;3.30;;;21.10;40.80;;;;;;5028085;28;20446;-82
2023/05/29 00:09:04;;;;;;;5.47;3.50;;;21.10;41.60;;;;;;5011594;28;21352;-85
2023/05/29 00:11:31;;;;;;;3.90;3.13;;;21.10;42.40;;;;;;5027055;28;20445;-83
2023/05/29 00:13:57;;;;;;;4.23;3.43;;;21.00;43.20;;;;;;5010572;28;20547;-83
2023/05/29 00:16:24;;;;;;;8.30;3.80;;;20.90;42.80;;;;;;5009979;28;21274;-82
2023/05/29 00:18:53;;;;;;;4.97;3.80;;;20.80;42.40;;;;;;5018162;28;21039;-86
2023/05/29 00:21:20;;;;;;;4.90;3.20;;;20.70;42.50;;;;;;5015259;28;20462;-83
2023/05/29 00:23:48;;;;;;;4.60;3.10;;;20.70;42.70;;;;;;5012135;28;21332;-84
2023/05/29 00:26:16;;;;;;;7.13;3.90;;;20.60;43.10;;;;;;5025845;28;20450;-84
2023/05/29 00:28:46;;;;;;;3.93;3.17;;;20.60;43.70;;;;;;4995338;28;20450;-83
2023/05/29 00:31:14;;;;;;;5.10;3.47;;;20.60;44.30;;;;;;5017598;28;20457;-82
2023/05/29 00:33:41;;;;;;;6.63;3.97;;;20.50;44.70;;;;;;5029424;28;21151;-85
2023/05/29 00:36:09;;;;;;;5.87;3.60;;;20.50;44.50;;;;;;4997762;28;20447;-84
2023/05/29 00:38:36;;;;;;;6.17;3.40;;;20.50;44.20;;;;;;5004976;28;20443;-85
2023/05/29 00:41:03;;;;;;;5.83;3.80;;;20.40;43.90;;;;;;5006881;28;20458;-83
2023/05/29 00:43:31;;;;;;;5.90;4.10;;;20.30;44.50;;;;;;5011059;28;20473;-82
2023/05/29 00:45:58;;;;;;;4.47;3.10;;;20.30;44.30;;;;;;5026692;28;20455;-85
2023/05/29 00:48:25;;;;;;;6.13;4.10;;;20.30;43.70;;;;;;5023852;28;20454;-83
2023/05/29 00:50:53;;;;;;;5.10;4.33;;;20.20;43.10;;;;;;5027265;28;20446;-84
2023/05/29 00:53:21;;;;;;;5.37;3.67;;;20.10;43.80;;;;;;5012851;28;20431;-83
2023/05/29 00:55:52;;;;;;;6.80;3.70;;;20.10;43.80;;;;;;5012414;28;20466;-83
2023/05/29 00:58:19;;;;;;;6.57;3.30;;;20.00;43.90;;;;;;5004050;28;20440;-84
2023/05/29 01:00:48;;;;;;;5.60;3.93;;;20.00;44.30;;;;;;5028699;28;20557;-83
2023/05/29 01:03:16;;;;;;;4.97;3.90;;;19.90;44.50;;;;;;5023008;28;20466;-85
2023/05/29 01:05:43;;;;;;;5.40;3.90;;;19.80;44.60;;;;;;5014007;28;20501;-83
2023/05/29 01:08:10;;;;;;;4.13;3.30;;;19.80;45.10;;;;;;5033838;28;20456;-81
2023/05/29 01:10:38;;;;;;;5.37;3.57;;;19.80;45.60;;;;;;4994967;28;20442;-83
2023/05/29 01:13:10;;;;;;;6.73;4.23;;;19.70;46.20;;;;;;5028260;28;20446;-83
2023/05/29 01:15:44;;;;;;;5.87;3.67;;;19.50;46.70;;;;;;5013159;28;20485;-83
2023/05/29 01:18:22;;;;;;;7.60;4.33;;;19.50;46.70;;;;;;5001804;28;20454;-83
2023/05/29 01:20:53;;;;;;;10.53;4.00;;;19.50;46.80;;;;;;5012830;28;20457;-84
2023/05/29 01:24:02;;;;;;;7.33;4.27;;;19.40;46.40;;;;;;4995902;28;20478;-83
2023/05/29 01:26:45;;;;;;;5.20;4.07;;;19.40;45.90;;;;;;5019044;28;20457;-82
2023/05/29 01:29:16;;;;;;;6.77;4.43;;;19.40;45.90;;;;;;5009699;28;20454;-83
2023/05/29 01:31:45;;;;;;;9.17;4.07;;;19.30;45.70;;;;;;5030739;28;20431;-83
2023/05/29 01:34:12;;;;;;;6.93;4.20;;;19.30;45.70;;;;;;5006698;28;20467;-83
2023/05/29 01:36:39;;;;;;;6.47;4.20;;;19.20;45.70;;;;;;5026503;28;20461;-83
2023/05/29 01:39:07;;;;;;;8.80;4.03;;;19.20;45.90;;;;;;5012527;28;20461;-83
2023/05/29 01:41:35;;;;;;;4.90;4.07;;;19.20;46.20;;;;;;5009695;28;20845;-83
2023/05/29 01:44:08;;;;;;;5.53;3.80;;;19.20;46.80;;;;;;5027033;28;20485;-83
2023/05/29 01:46:36;;;;;;;6.40;4.53;;;19.10;47.80;;;;;;5013791;28;20506;-82
2023/05/29 01:49:04;;;;;;;5.43;3.37;;;19.10;48.10;;;;;;5044277;28;21332;-83
2023/05/29 01:51:32;;;;;;;5.23;4.50;;;19.10;47.20;;;;;;5025865;28;20592;-83
2023/05/29 01:54:00;;;;;;;5.63;3.83;;;19.10;46.90;;;;;;5017294;28;20458;-84
2023/05/29 01:56:28;;;;;;;9.10;4.13;;;19.10;46.70;;;;;;5024688;28;20451;-81
2023/05/29 01:58:57;;;;;;;4.50;4.10;;;19.10;46.30;;;;;;5018138;28;20462;-83
2023/05/29 02:01:25;;;;;;;11.50;4.90;;;19.00;46.00;;;;;;5017322;28;20466;-80
2023/05/29 02:03:52;;;;;;;5.30;4.47;;;19.00;46.20;;;;;;5010556;28;20473;-82
2023/05/29 02:06:20;;;;;;;7.37;4.20;;;19.00;46.40;;;;;;5022416;28;20465;-83
2023/05/29 02:08:47;;;;;;;5.30;3.80;;;18.90;46.30;;;;;;5027754;28;20450;-83
2023/05/29 02:11:15;;;;;;;7.07;4.20;;;18.80;46.20;;;;;;4998166;28;20442;-82
2023/05/29 02:13:42;;;;;;;6.73;3.70;;;18.80;46.70;;;;;;5019713;28;21255;-83
2023/05/29 02:16:09;;;;;;;6.10;4.07;;;18.80;47.00;;;;;;5009084;28;20462;-82
2023/05/29 02:18:38;;;;;;;6.80;4.10;;;18.70;47.10;;;;;;5016303;28;20842;-84
2023/05/29 02:21:07;;;;;;;4.47;3.87;;;18.60;47.20;;;;;;5014788;28;20458;-84
2023/05/29 02:23:34;;;;;;;4.23;3.83;;;18.60;47.60;;;;;;5032697;28;20850;-83
2023/05/29 02:26:01;;;;;;;5.43;4.33;;;18.70;47.80;;;;;;4997844;28;20481;-83
2023/05/29 02:28:28;;;;;;;5.47;3.47;;;18.60;47.90;;;;;;5008947;28;20465;-83
2023/05/29 02:30:55;;;;;;;7.17;4.23;;;18.60;47.60;;;;;;5019498;28;20537;-83
2023/05/29 02:33:22;;;;;;;5.40;3.60;;;18.60;47.50;;;;;;5026420;28;20465;-83
2023/05/29 02:35:50;;;;;;;4.93;3.80;;;18.60;47.10;;;;;;4998905;28;20497;-82
2023/05/29 02:38:17;;;;;;;6.70;3.73;;;18.50;47.00;;;;;;5035669;28;20442;-82
2023/05/29 02:40:44;;;;;;;8.30;5.20;;;18.40;47.20;;;;;;5002114;28;20562;-83
2023/05/29 02:43:14;;;;;;;6.70;3.63;;;18.40;47.40;;;;;;5018240;28;20502;-82
2023/05/29 02:45:41;;;;;;;6.30;3.70;;;18.40;47.90;;;;;;5024634;28;20532;-83
2023/05/29 02:48:08;;;;;;;6.20;4.37;;;18.30;48.20;;;;;;5021924;28;20453;-81
2023/05/29 02:50:35;;;;;;;6.17;4.67;;;18.30;48.00;;;;;;5026311;28;20453;-83
2023/05/29 02:53:04;;;;;;;8.97;4.10;;;18.20;47.70;;;;;;5029582;28;20457;-82
2023/05/29 02:55:35;;;;;;;5.20;3.63;;;18.10;48.00;;;;;;4999833;28;20474;-83
2023/05/29 02:58:02;;;;;;;6.83;4.00;;;18.10;47.50;;;;;;5019863;28;20486;-83
2023/05/29 03:00:30;;;;;;;5.40;4.27;;;18.10;46.90;;;;;;5014414;28;20529;-83
2023/05/29 03:02:58;;;;;;;7.00;3.90;;;18.10;47.30;;;;;;5001586;28;20529;-82
2023/05/29 03:05:26;;;;;;;6.00;4.57;;;18.10;47.60;;;;;;5016527;28;20489;-83
2023/05/29 03:07:53;;;;;;;5.33;4.03;;;18.10;47.80;;;;;;5041370;28;20460;-82
2023/05/29 03:10:22;;;;;;;4.93;4.03;;;18.00;48.10;;;;;;5011037;28;20616;-82
2023/05/29 03:12:49;;;;;;;5.57;3.43;;;18.00;48.60;;;;;;5031049;28;20445;-83
2023/05/29 03:15:16;;;;;;;5.57;4.33;;;17.90;48.90;;;;;;5018226;28;20478;-83
2023/05/29 03:17:43;;;;;;;5.70;3.83;;;17.90;48.60;;;;;;5021937;28;20585;-84
2023/05/29 03:20:16;;;;;;;6.83;4.17;;;17.90;48.60;;;;;;4999699;28;20452;-83
2023/05/29 03:22:43;;;;;;;5.30;3.60;;;17.80;48.60;;;;;;5014633;28;20560;-83
2023/05/29 03:25:10;;;;;;;6.87;4.03;;;17.60;49.00;;;;;;5000682;28;20510;-84
2023/05/29 03:27:39;;;;;;;6.97;4.90;;;17.50;49.30;;;;;;5023462;28;20837;-83
2023/05/29 03:30:12;;;;;;;6.67;4.47;;;17.50;49.50;;;;;;5003087;28;20585;-83
2023/05/29 03:32:39;;;;;;;7.67;4.57;;;17.50;49.70;;;;;;5013786;28;20564;-83
2023/05/29 03:35:06;;;;;;;6.90;4.40;;;17.50;50.40;;;;;;5028408;28;20462;-81
2023/05/29 03:37:33;;;;;;;6.53;4.53;;;17.50;50.60;;;;;;5031693;28;20476;-83
2023/05/29 03:40:00;;;;;;;11.07;4.73;;;17.50;50.20;;;;;;4995940;28;20525;-84
2023/05/29 03:42:30;;;;;;;6.40;3.83;;;17.50;50.20;;;;;;5017911;28;20456;-83
2023/05/29 03:44:59;;;;;;;6.83;4.33;;;17.50;50.20;;;;;;5016026;28;20481;-82
2023/05/29 03:47:26;;;;;;;9.53;4.57;;;17.50;49.90;;;;;;5018523;28;22080;-82
2023/05/29 03:49:54;;;;;;;9.33;4.30;;;17.50;50.00;;;;;;5032429;28;20532;-83
2023/05/29 03:52:21;;;;;;;5.80;5.20;;;17.60;50.00;;;;;;5036331;28;20512;-83
2023/05/29 03:54:48;;;;;;;5.40;4.63;;;17.60;50.20;;;;;;4993518;28;20477;-81
2023/05/29 03:57:17;;;;;;;5.00;4.43;;;17.60;50.60;;;;;;5018894;28;20474;-80
2023/05/29 03:59:45;;;;;;;4.80;3.87;;;17.60;50.40;;;;;;5004902;28;20457;-83
2023/05/29 04:02:13;;;;;;;6.57;5.03;;;17.50;51.30;;;;;;5018537;28;21420;-83
2023/05/29 04:04:40;;;;;;;15.87;4.57;;;17.40;51.10;;;;;;5026842;28;20482;-83
2023/05/29 04:07:07;;;;;;;6.67;4.27;;;17.40;50.80;;;;;;5004378;28;20453;-81
2023/05/29 04:09:34;;;;;;;8.30;4.87;;;17.50;50.90;;;;;;5011671;28;20497;-83
2023/05/29 04:12:02;;;;;;;6.03;4.13;;;17.50;50.90;;;;;;4994343;28;20454;-83
2023/05/29 04:14:29;;;;;;;6.60;4.40;;;17.50;50.60;;;;;;5019382;28;20480;-82
2023/05/29 04:16:57;;;;;;;6.53;4.90;;;17.50;51.00;;;;;;5004871;28;20456;-81
2023/05/29 04:19:25;;;;;;;7.87;4.40;;;17.50;51.10;;;;;;5001081;28;20464;-83
2023/05/29 04:21:52;;;;;;;6.33;4.33;;;17.50;51.40;;;;;;5014294;28;20462;-84
2023/05/29 04:24:20;;;;;;;6.40;4.53;;;17.60;51.50;;;;;;5009647;28;20512;-83
2023/05/29 04:26:47;;;;;;;6.03;4.33;;;17.60;51.40;;;;;;5028332;28;20466;-82
2023/05/29 04:29:14;;;;;;;6.23;5.00;;;17.60;52.00;;;;;;5024483;28;20480;-83
2023/05/29 04:31:42;;;;;;;7.67;4.03;;;17.60;52.20;;;;;;5005786;28;20454;-83
2023/05/29 04:34:10;;;;;;;6.60;4.60;;;17.60;52.00;;;;;;5019685;28;20538;-83
2023/05/29 04:36:39;;;;;;;7.43;4.40;;;17.60;51.50;;;;;;5014263;28;20449;-83
2023/05/29 04:39:10;;;;;;;7.00;4.57;;;17.60;51.80;;;;;;5026596;28;20449;-82
2023/05/29 04:41:37;;;;;;;7.20;4.60;;;17.60;51.80;;;;;;5029873;28;20968;-82
2023/05/29 04:44:07;;;;;;;6.70;4.57;;;17.60;52.90;;;;;;5028151;28;20564;-82
2023/05/29 04:46:44;;;;;;;9.07;4.20;;;17.60;52.50;;;;;;5027636;28;20458;-83
2023/05/29 04:49:12;;;;;;;6.50;4.93;;;17.60;52.60;;;;;;5015269;28;20556;-82
2023/05/29 04:51:41;;;;;;;7.13;4.60;;;17.50;53.00;;;;;;5009399;28;20447;-83
2023/05/29 04:54:08;;;;;;;6.57;4.07;;;17.50;53.40;;;;;;5014597;28;20485;-80
2023/05/29 04:56:36;;;;;;;4.83;4.33;;;17.60;53.30;;;;;;5027088;28;21004;-82
2023/05/29 04:59:03;;;;;;;6.63;4.97;;;17.60;52.40;;;;;;5019586;28;20605;-83
2023/05/29 05:01:33;;;;;;;7.90;4.33;;;17.60;53.00;;;;;;4999138;28;20485;-82
2023/05/29 05:04:00;;;;;;;5.00;4.43;;;17.60;52.80;;;;;;5012188;28;20597;-83
2023/05/29 05:06:28;;;;;;;7.67;5.00;;;17.70;53.00;;;;;;4997951;28;20465;-82
2023/05/29 05:08:57;;;;;;;9.27;5.07;;;17.60;53.10;;;;;;5012450;28;20453;-83
2023/05/29 05:11:24;;;;;;;5.90;4.90;;;17.70;53.30;;;;;;5012964;28;20457;-82
2023/05/29 05:13:52;;;;;;;9.83;5.13;;;17.70;52.80;;;;;;5015372;28;20989;-83
2023/05/29 05:16:19;;;;;;;5.60;4.97;;;17.80;52.60;;;;;;5009227;28;20549;-83
2023/05/29 05:18:46;;;;;;;7.60;4.60;;;17.70;53.80;;;;;;5019585;28;20489;-83
2023/05/29 05:21:13;;;;;;;5.53;4.73;;;17.60;53.70;;;;;;5014145;28;20463;-82
2023/05/29 05:23:42;;;;;;;7.07;4.70;;;17.70;54.00;;;;;;5015194;28;20497;-84
2023/05/29 05:26:12;;;;;;;8.93;4.87;;;17.80;53.60;;;;;;5008273;28;20461;-83
2023/05/29 05:28:39;;;;;;;7.00;5.33;;;17.90;53.60;;;;;;5017057;28;20462;-82
2023/05/29 05:31:06;;;;;;;5.80;4.60;;;17.90;53.30;;;;;;4995936;28;20447;-82
2023/05/29 05:33:33;;;;;;;7.00;5.13;;;18.00;53.40;;;;;;5011639;28;21496;-83
2023/05/29 05:36:01;;;;;;;5.77;4.80;;;18.10;53.80;;;;;;5014663;28;20474;-83
2023/05/29 05:38:28;;;;;;;8.40;4.43;;;18.20;53.70;;;;;;5006162;28;20449;-83
2023/05/29 05:40:55;;;;;;;7.00;4.57;;;18.00;53.20;;;;;;5018473;28;20640;-83
2023/05/29 05:43:29;;;;;;;6.20;4.53;;;18.00;54.10;;;;;;5014932;28;20536;-84
2023/05/29 05:46:06;;;;;;;5.80;4.13;;;18.10;54.40;;;;;;4993084;28;20494;-83
2023/05/29 05:48:35;;;;;;;7.20;4.90;;;18.30;54.50;;;;;;5025331;28;20454;-82
2023/05/29 05:51:02;;;;;;;8.33;4.20;;;18.60;53.70;;;;;;5027739;28;20953;-83
2023/05/29 05:53:29;;;;;;;5.37;4.23;;;18.60;53.80;;;;;;5027830;28;21378;-83
2023/05/29 05:55:58;;;;;;;5.97;3.67;;;18.90;53.70;;;;;;5042125;28;20435;-83
2023/05/29 05:58:26;;;;;;;6.40;4.10;;;19.10;53.10;;;;;;5024598;28;20529;-83
2023/05/29 06:00:55;;;;;;;11.60;4.73;;;19.30;52.90;;;;;;5023124;28;20450;-82
2023/05/29 06:03:22;;;;;;;9.23;4.50;;;19.00;50.80;;;;;;5034073;28;20488;-84
2023/05/29 06:06:08;;;;;;;5.20;3.53;;;18.80;51.20;;;;;;5017257;28;20451;-82
2023/05/29 06:08:35;;;;;;;6.50;3.90;;;18.90;51.50;;;;;;5007912;28;20445;-82
2023/05/29 06:11:02;;;;;;;4.00;3.57;;;19.10;51.40;;;;;;5026623;28;21043;-83
2023/05/29 06:13:30;;;;;;;5.13;4.10;;;19.50;51.00;;;;;;4996476;28;21502;-83
2023/05/29 06:16:06;;;;;;;5.50;3.83;;;19.80;51.00;;;;;;5014515;28;20967;-83
2023/05/29 06:18:33;;;;;;;8.50;4.67;;;20.00;50.20;;;;;;5009581;28;20485;-83
2023/05/29 06:21:01;;;;;;;6.03;4.43;;;20.20;50.20;;;;;;5030471;28;20466;-83
2023/05/29 06:23:28;;;;;;;7.87;3.47;;;20.50;48.90;;;;;;5000703;28;20470;-82
2023/05/29 06:25:55;;;;;;;5.67;3.97;;;20.50;46.90;;;;;;4999684;28;20654;-83
2023/05/29 06:28:22;;;;;;;8.13;3.40;;;20.20;47.50;;;;;;4993968;28;20486;-81
2023/05/29 06:30:49;;;;;;;7.00;4.17;;;20.00;48.30;;;;;;5018605;28;20968;-82
2023/05/29 06:33:20;;;;;;;6.50;4.30;;;19.90;48.50;;;;;;5013194;28;20536;-82
2023/05/29 06:35:47;;;;;;;6.70;4.20;;;20.30;49.60;;;;;;5002870;28;20461;-83
2023/05/29 06:38:14;;;;;;;12.23;4.37;;;20.50;48.30;;;;;;5011211;28;20464;-82
2023/05/29 06:40:41;;;;;;;5.63;3.30;;;20.50;48.00;;;;;;4995592;28;21335;-81
2023/05/29 06:43:09;;;;;;;6.70;3.97;;;20.70;48.50;;;;;;5007841;28;20464;-83
2023/05/29 06:45:40;;;;;;;4.60;3.70;;;20.90;47.50;;;;;;5007101;28;20469;-82
2023/05/29 06:48:07;;;;;;;7.10;3.60;;;21.20;47.70;;;;;;5013248;28;20520;-84
2023/05/29 06:50:36;;;;;;;5.80;3.50;;;21.40;47.70;;;;;;4993112;28;20454;-83
2023/05/29 06:53:15;;;;;;;5.33;3.40;;;21.50;45.50;;;;;;5020631;28;20460;-82
2023/05/29 06:55:50;;;;;;;3.37;3.07;;;21.40;45.50;;;;;;5004113;28;20573;-82
2023/05/29 06:58:17;;;;;;;5.60;4.40;;;21.70;45.80;;;;;;4998769;28;20445;-81
2023/05/29 07:00:45;;;;;;;4.97;3.10;;;21.90;47.60;;;;;;5012830;28;20967;-82
2023/05/29 07:03:36;;;;;;;3.90;3.17;;;22.20;45.90;;;;;;5014066;28;20547;-83
2023/05/29 07:06:07;;;;;;;5.40;3.20;;;22.50;45.20;;;;;;5005801;28;20485;-83
2023/05/29 07:08:34;;;;;;;5.10;2.80;;;22.70;44.60;;;;;;5028525;28;20530;-82
2023/05/29 07:11:03;;;;;;;3.67;2.93;;;22.90;44.00;;;;;;5013375;28;20551;-83
2023/05/29 07:13:30;;;;;;;3.57;3.27;;;23.10;42.10;;;;;;5003148;28;21021;-83
2023/05/29 07:15:56;;;;;;;4.20;3.10;;;23.00;41.40;;;;;;5026757;28;20472;-84
2023/05/29 07:18:30;;;;;;;3.60;2.90;;;23.00;42.50;;;;;;4987409;28;20549;-84
2023/05/29 07:21:00;;;;;;;5.77;3.33;;;23.10;41.00;;;;;;4995229;28;20532;-83
2023/05/29 07:23:30;;;;;;;7.03;3.57;;;23.10;41.00;;;;;;5017364;28;20514;-84
2023/05/29 07:25:57;;;;;;;5.77;3.10;;;23.30;42.20;;;;;;5012636;28;20445;-82
2023/05/29 07:28:27;;;;;;;4.20;3.00;;;23.50;41.30;;;;;;5001019;28;20452;-82
2023/05/29 07:30:55;;;;;;;5.23;3.13;;;23.50;40.60;;;;;;5026577;28;20892;-84
2023/05/29 07:33:22;;;;;;;3.13;2.30;;;23.30;39.50;;;;;;5024121;28;20541;-81
2023/05/29 07:35:49;;;;;;;5.00;3.03;;;23.30;38.60;;;;;;5001368;28;20569;-82
2023/05/29 07:38:16;;;;;;;2.80;2.50;;;23.40;37.80;;;;;;5006835;28;20462;-83
2023/05/29 07:40:45;;;;;;;3.57;2.50;;;23.40;38.40;;;;;;5025612;28;20511;-83
2023/05/29 07:43:19;;;;;;;3.40;2.70;;;23.40;38.40;;;;;;5011928;28;20949;-83
2023/05/29 07:45:52;;;;;;;8.40;2.97;;;23.60;38.10;;;;;;5017747;28;20481;-82
2023/05/29 07:48:20;;;;;;;3.50;3.00;;;23.50;37.50;;;;;;5009581;28;20537;-82
2023/05/29 07:50:48;;;;;;;3.07;2.80;;;23.70;37.80;;;;;;5009761;28;20457;-82
2023/05/29 07:53:15;;;;;;;4.80;2.90;;;23.80;36.20;;;;;;5015662;28;20897;-83
2023/05/29 07:55:43;;;;;;;5.63;3.20;;;23.90;37.20;;;;;;5008089;28;20616;-82
2023/05/29 07:58:12;;;;;;;4.57;2.80;;;24.20;36.30;;;;;;5002727;28;20966;-83
2023/05/29 08:00:39;;;;;;;4.93;2.90;;;24.10;35.40;;;;;;5025059;28;20450;-82
2023/05/29 08:03:06;;;;;;;6.07;3.07;;;24.00;36.70;;;;;;5008410;28;20458;-83
2023/05/29 08:05:53;;;;;;;3.97;2.57;;;24.20;36.30;;;;;;5024461;28;20486;-81
2023/05/29 08:08:21;;;;;;;2.70;2.23;;;24.50;37.30;;;;;;5035804;28;20450;-81
2023/05/29 08:10:48;;;;;;;10.87;3.30;;;24.60;35.50;;;;;;5033827;28;20458;-81
2023/05/29 08:13:17;;;;;;;7.60;3.30;;;24.90;36.30;;;;;;5008904;28;20573;-81
2023/05/29 08:15:46;;;;;;;5.60;2.97;;;25.10;35.60;;;;;;5011577;28;20635;-81
2023/05/29 08:18:13;;;;;;;2.70;2.50;;;25.20;35.10;;;;;;5015113;28;20520;-81
2023/05/29 08:20:44;;;;;;;3.17;2.67;;;25.10;35.60;;;;;;5008017;28;20508;-82
2023/05/29 08:23:11;;;;;;;3.67;2.80;;;25.00;35.50;;;;;;5028124;28;20442;-82
2023/05/29 08:25:38;;;;;;;2.57;2.37;;;25.20;34.40;;;;;;5003776;28;20485;-83
2023/05/29 08:28:05;;;;;;;4.37;2.43;;;25.20;35.10;;;;;;5024146;28;20450;-83
2023/05/29 08:30:33;;;;;;;4.60;2.90;;;25.30;35.30;;;;;;5014912;28;20450;-83
2023/05/29 08:33:00;;;;;;;6.50;2.80;;;25.50;35.60;;;;;;5012961;28;20458;-83
2023/05/29 08:35:28;;;;;;;7.43;4.60;;;25.60;34.80;;;;;;5014404;28;20461;-83
2023/05/29 08:37:55;;;;;;;4.17;3.03;;;25.70;33.60;;;;;;5017913;28;21234;-84
2023/05/29 08:40:22;;;;;;;4.30;2.27;;;25.90;34.20;;;;;;4994742;28;20458;-83
2023/05/29 08:43:03;;;;;;;4.00;3.20;;;25.90;33.10;;;;;;5012324;28;20453;-83
2023/05/29 08:45:31;;;;;;;4.10;3.03;;;26.10;34.70;;;;;;5007078;28;20489;-82
2023/05/29 08:48:01;;;;;;;3.80;3.13;;;26.50;34.50;;;;;;5001299;28;20462;-82
2023/05/29 08:50:28;;;;;;;3.17;2.90;;;26.60;32.20;;;;;;5022096;28;20522;-83
2023/05/29 08:52:55;;;;;;;3.03;2.70;;;26.40;31.90;;;;;;5017839;28;20443;-83
2023/05/29 08:55:22;;;;;;;3.57;2.93;;;26.60;34.40;;;;;;5022324;28;20465;-83
2023/05/29 08:57:50;;;;;;;3.67;2.77;;;26.80;31.20;;;;;;5026015;28;20447;-84
2023/05/29 09:00:18;;;;;;;3.77;3.20;;;26.80;32.00;;;;;;5008612;28;20445;-80
2023/05/29 09:02:45;;;;;;;4.37;2.90;;;27.00;32.10;;;;;;5023794;28;20568;-83
2023/05/29 09:05:14;;;;;;;5.10;2.63;;;27.00;31.10;;;;;;4999884;28;20482;-85
2023/05/29 09:07:41;;;;;;;3.77;2.90;;;27.10;31.10;;;;;;5015545;28;21289;-83
2023/05/29 09:10:09;;;;;;;4.40;3.20;;;27.10;31.00;;;;;;5021165;28;20449;-84
2023/05/29 09:12:36;;;;;;;4.03;2.60;;;27.30;30.50;;;;;;5023284;28;20503;-83
2023/05/29 09:15:08;;;;;;;3.97;2.90;;;27.20;29.30;;;;;;5013562;28;20458;-84
2023/05/29 09:17:35;;;;;;;4.67;2.90;;;27.20;29.90;;;;;;4995955;28;21164;-84
2023/05/29 09:20:04;;;;;;;3.13;2.83;;;27.20;28.80;;;;;;5025531;28;20458;-84
2023/05/29 09:22:33;;;;;;;5.97;2.90;;;27.30;28.90;;;;;;5019015;28;21003;-84
2023/05/29 09:25:00;;;;;;;6.20;2.43;;;27.20;26.80;;;;;;5001928;28;20473;-84
2023/05/29 09:27:27;;;;;;;3.70;2.40;;;27.50;28.90;;;;;;5017293;28;20462;-83
2023/05/29 09:29:55;;;;;;;5.13;3.20;;;27.80;28.40;;;;;;5018941;28;20449;-83
2023/05/29 09:32:22;;;;;;;4.13;3.27;;;27.90;27.00;;;;;;5013371;28;20473;-84
2023/05/29 09:34:49;;;;;;;3.30;2.70;;;27.80;27.00;;;;;;5015612;28;20473;-84
2023/05/29 09:37:21;;;;;;;3.10;2.80;;;27.80;27.30;;;;;;5030104;28;20477;-84
2023/05/29 09:39:51;;;;;;;3.17;2.90;;;28.00;26.60;;;;;;5014539;28;21079;-84
2023/05/29 09:42:19;;;;;;;4.87;3.40;;;28.20;25.70;;;;;;5024364;28;20458;-82
2023/05/29 09:44:49;;;;;;;4.50;2.73;;;28.20;26.60;;;;;;5008270;28;21336;-84
2023/05/29 09:47:18;;;;;;;5.00;3.23;;;28.40;26.20;;;;;;5009308;28;21023;-84
2023/05/29 09:49:46;;;;;;;3.23;2.93;;;28.60;27.50;;;;;;5015700;28;20462;-84
2023/05/29 09:52:15;;;;;;;3.60;2.97;;;29.00;27.70;;;;;;5028548;28;20458;-84
2023/05/29 09:54:45;;;;;;;5.43;3.10;;;29.10;26.10;;;;;;5000547;28;20471;-83
2023/05/29 09:57:15;;;;;;;4.43;2.80;;;29.10;26.70;;;;;;5003386;28;20449;-84
2023/05/29 09:59:44;;;;;;;4.77;3.83;;;29.00;25.70;;;;;;5017278;28;20446;-87
2023/05/29 10:02:13;;;;;;;4.17;2.70;;;29.00;25.70;;;;;;5017169;28;20449;-87
2023/05/29 10:04:40;;;;;;;4.20;3.00;;;29.10;27.10;;;;;;5022358;28;20522;-88
2023/05/29 10:07:11;;;;;;;4.07;2.90;;;29.50;26.30;;;;;;5013252;28;20442;-87
2023/05/29 10:09:43;;;;;;;3.63;2.73;;;29.60;25.10;;;;;;5008630;28;20540;-88
2023/05/29 10:12:14;;;;;;;3.67;2.70;;;29.30;25.00;;;;;;5019396;28;20446;-88
2023/05/29 10:14:44;;;;;;;3.17;2.87;;;29.00;24.80;;;;;;5004279;28;20458;-87
2023/05/29 10:17:16;;;;;;;3.87;2.87;;;29.00;25.80;;;;;;5012323;28;20452;-87
2023/05/29 10:19:45;;;;;;;3.60;2.80;;;29.20;25.20;;;;;;5018086;28;20450;-88
2023/05/29 10:22:13;;;;;;;4.10;3.53;;;29.30;24.90;;;;;;5019773;28;20457;-87
2023/05/29 10:24:40;;;;;;;3.03;2.83;;;29.20;25.30;;;;;;5016681;28;20549;-85
2023/05/29 10:27:08;;;;;;;3.40;3.10;;;28.90;25.40;;;;;;5027667;28;20449;-84
2023/05/29 10:29:42;;;;;;;3.53;3.20;;;29.20;26.30;;;;;;5000096;28;20462;-83
2023/05/29 10:32:21;;;;;;;3.20;2.50;;;29.40;24.60;;;;;;5028249;28;20452;-84
2023/05/29 10:34:57;;;;;;;6.37;3.00;;;29.50;25.80;;;;;;5009887;28;20477;-85
2023/05/29 10:37:33;;;;;;;4.37;2.97;;;29.50;25.00;;;;;;5011867;28;20446;-83
2023/05/29 10:40:08;;;;;;;4.63;3.60;;;29.50;24.90;;;;;;5026120;28;20560;-84
2023/05/29 10:42:43;;;;;;;3.00;2.70;;;29.50;26.30;;;;;;5025050;28;20449;-84
2023/05/29 10:45:32;;;;;;;4.27;2.40;;;29.80;25.40;;;;;;5011198;28;20469;-84
2023/05/29 10:48:36;;;;;;;5.00;3.50;;;30.00;25.90;;;;;;5001481;28;20446;-84
2023/05/29 10:51:06;;;;;;;5.70;2.80;;;29.90;25.30;;;;;;5025760;28;20456;-83
2023/05/29 10:53:33;;;;;;;5.23;2.87;;;29.80;25.30;;;;;;5023489;28;20461;-84
2023/05/29 10:56:02;;;;;;;3.87;3.27;;;30.10;25.30;;;;;;5026603;28;20871;-84
2023/05/29 10:58:31;;;;;;;3.40;2.90;;;30.20;25.20;;;;;;5012985;28;20446;-86
2023/05/29 11:00:59;;;;;;;3.20;2.90;;;30.10;25.00;;;;;;5011734;28;20454;-84
2023/05/29 11:03:31;;;;;;;3.50;2.87;;;30.30;25.80;;;;;;5010408;28;20468;-85
2023/05/29 11:05:59;;;;;;;3.60;2.57;;;30.40;25.20;;;;;;5029989;28;21005;-84
2023/05/29 11:08:33;;;;;;;4.60;3.20;;;30.40;24.90;;;;;;5026447;28;20454;-85
2023/05/29 11:11:00;;;;;;;5.27;2.60;;;30.60;25.80;;;;;;5015035;28;20434;-85
2023/05/29 11:13:33;;;;;;;3.57;3.27;;;30.70;24.20;;;;;;5026465;28;20535;-82
2023/05/29 11:16:36;;;;;;;3.83;2.20;;;30.70;23.80;;;;;;5010840;28;20963;-85
2023/05/29 11:19:06;;;;;;;10.43;3.20;;;30.70;23.90;;;;;;5015631;28;20920;-85
2023/05/29 11:21:51;;;;;;;3.67;3.23;;;30.30;24.40;;;;;;4999429;28;20529;-85
2023/05/29 11:24:23;;;;;;;4.43;2.90;;;30.00;25.20;;;;;;5025744;28;20480;-87
2023/05/29 11:26:52;;;;;;;3.00;2.70;;;29.80;25.20;;;;;;5011580;28;20473;-85
2023/05/29 11:29:22;;;;;;;5.13;3.03;;;29.90;25.40;;;;;;5019654;28;20446;-84
2023/05/29 11:32:05;;;;;;;4.80;3.13;;;30.00;25.20;;;;;;5024020;28;20450;-84
2023/05/29 11:34:33;;;;;;;6.30;3.10;;;30.10;25.50;;;;;;5024964;28;20505;-84
2023/05/29 11:37:01;;;;;;;4.07;2.70;;;30.20;25.20;;;;;;5036898;28;20448;-82
2023/05/29 11:39:28;;;;;;;3.10;2.60;;;30.60;26.30;;;;;;5025429;28;20454;-84
2023/05/29 11:41:56;;;;;;;3.73;2.50;;;30.40;25.40;;;;;;5028454;28;20457;-83
2023/05/29 11:44:25;;;;;;;3.13;2.83;;;30.70;24.40;;;;;;5017713;28;20462;-85
2023/05/29 11:47:03;;;;;;;10.50;3.40;;;30.60;24.00;;;;;;5035374;28;20469;-84
2023/05/29 11:49:32;;;;;;;4.60;2.90;;;30.20;24.80;;;;;;5029384;28;20438;-85
2023/05/29 11:52:10;;;;;;;3.53;2.77;;;30.20;24.40;;;;;;5021336;28;20477;-84
2023/05/29 11:54:37;;;;;;;5.00;3.73;;;30.60;26.10;;;;;;5034187;28;20473;-84
2023/05/29 11:57:05;;;;;;;3.33;3.00;;;30.90;25.20;;;;;;5002751;28;20446;-84
2023/05/29 11:59:32;;;;;;;6.27;3.67;;;30.90;24.80;;;;;;4990445;28;20458;-84
2023/05/29 12:02:03;;;;;;;3.47;2.90;;;30.90;24.70;;;;;;5003360;28;21010;-86
2023/05/29 12:04:30;;;;;;;3.30;3.00;;;30.90;23.80;;;;;;5017574;28;20462;-87
2023/05/29 12:06:57;;;;;;;3.80;3.07;;;30.80;24.00;;;;;;5000629;28;20466;-86
2023/05/29 12:09:26;;;;;;;3.13;2.83;;;30.70;23.90;;;;;;5012685;28;20442;-84
2023/05/29 12:11:53;;;;;;;4.13;2.60;;;30.90;24.60;;;;;;5014399;28;20458;-85
2023/05/29 12:14:21;;;;;;;5.10;2.70;;;31.10;23.70;;;;;;5029379;28;20498;-85
2023/05/29 12:16:48;;;;;;;3.47;3.00;;;30.80;23.70;;;;;;5011385;28;20782;-84
2023/05/29 12:19:16;;;;;;;6.67;3.10;;;30.50;24.40;;;;;;5006739;28;20827;-85
2023/05/29 12:21:44;;;;;;;4.50;3.10;;;30.70;24.00;;;;;;5026177;28;20465;-84
2023/05/29 12:24:11;;;;;;;7.30;3.07;;;31.10;24.60;;;;;;5005625;28;20824;-85
2023/05/29 12:26:38;;;;;;;4.10;3.30;;;31.40;23.40;;;;;;5010658;28;20864;-85
2023/05/29 12:29:06;;;;;;;4.40;3.00;;;31.20;23.20;;;;;;5013930;28;20469;-85
2023/05/29 12:31:33;;;;;;;9.03;3.50;;;31.20;23.60;;;;;;5004600;28;20492;-85
2023/05/29 12:34:02;;;;;;;3.27;2.97;;;31.30;23.50;;;;;;5015040;28;20547;-85
2023/05/29 12:36:30;;;;;;;4.73;2.97;;;31.60;23.90;;;;;;5026912;28;20453;-86
2023/05/29 12:38:58;;;;;;;4.17;3.23;;;31.40;23.70;;;;;;5020011;28;20457;-86
2023/05/29 12:41:27;;;;;;;6.30;3.40;;;31.40;23.90;;;;;;5020683;28;20466;-85
2023/05/29 12:43:56;;;;;;;5.20;3.10;;;31.70;23.90;;;;;;5028993;28;20442;-84
2023/05/29 12:46:24;;;;;;;3.67;3.37;;;31.80;23.40;;;;;;5026638;28;20477;-86
2023/05/29 12:48:53;;;;;;;10.67;2.90;;;31.40;23.80;;;;;;4993531;28;20475;-88
2023/05/29 12:51:24;;;;;;;5.80;3.07;;;31.60;23.60;;;;;;5029086;28;20465;-87
2023/05/29 12:53:54;;;;;;;5.73;3.27;;;31.60;23.60;;;;;;5010781;28;20453;-87
2023/05/29 12:56:23;;;;;;;4.20;3.47;;;31.70;23.70;;;;;;5009585;28;20524;-86